Time;durP1;ratioP1;P1;durP2;ratioP2;P2;SDS_P1;SDS_P2;PMS_P1;PMS_P2;Temp;Humidity;BMP_temperature;BMP_pressure;BME280_temperature;BME280_humidity;BME280_pressure;Samples;Min_cycle;Max_cycle;Signal;HPM_P1;HPM_P2
2022/10/11 00:00:46;;;;;;;11.88;2.47;;;;;;;;;;5001676;28;20818;-67
2022/10/11 00:03:13;;;;;;;12.90;3.15;;;;;;;;;;5008567;28;20498;-67
2022/10/11 00:05:42;;;;;;;11.52;3.05;;;;;;;;;;5001437;28;20033;-67
2022/10/11 00:08:11;;;;;;;10.40;2.65;;;;;;;;;;4987438;28;20044;-67
2022/10/11 00:10:38;;;;;;;13.48;2.78;;;;;;;;;;4984906;28;20041;-67
2022/10/11 00:13:06;;;;;;;12.15;2.63;;;;;;;;;;5006766;28;20022;-67
2022/10/11 00:15:33;;;;;;;11.00;3.03;;;;;;;;;;5000356;28;20139;-67
2022/10/11 00:18:00;;;;;;;11.65;2.97;;;;;;;;;;5007169;28;20032;-67
2022/10/11 00:20:28;;;;;;;10.80;2.47;;;;;;;;;;4987835;28;20431;-67
2022/10/11 00:22:55;;;;;;;11.38;2.70;;;;;;;;;;5006612;28;20025;-67
2022/10/11 00:25:22;;;;;;;15.30;2.78;;;;;;;;;;5008792;28;20052;-67
2022/10/11 00:27:50;;;;;;;12.98;2.83;;;;;;;;;;5009486;28;20061;-66
2022/10/11 00:30:18;;;;;;;10.30;2.72;;;;;;;;;;5011262;28;20669;-67
2022/10/11 00:32:45;;;;;;;10.90;2.60;;;;;;;;;;5006436;28;20399;-66
2022/10/11 00:35:12;;;;;;;12.77;2.78;;;;;;;;;;4991156;28;20680;-67
2022/10/11 00:37:40;;;;;;;11.68;2.83;;;;;;;;;;5006725;28;20123;-66
2022/10/11 00:40:10;;;;;;;10.07;2.47;;;;;;;;;;4991109;28;20447;-67
2022/10/11 00:42:36;;;;;;;12.30;2.78;;;;;;;;;;4988942;28;20124;-67
2022/10/11 00:45:21;;;;;;;15.70;2.90;;;;;;;;;;5009582;28;20027;-67
2022/10/11 00:47:47;;;;;;;16.05;3.17;;;;;;;;;;5004737;28;20174;-67
2022/10/11 00:50:13;;;;;;;;;;;;;;;;;;5009839;28;20111;-67
2022/10/11 00:52:45;;;;;;;15.52;2.58;;;;;;;;;;5007120;28;20011;-67
2022/10/11 00:55:13;;;;;;;10.07;2.70;;;;;;;;;;4990485;28;20567;-67
2022/10/11 00:57:40;;;;;;;12.43;2.70;;;;;;;;;;5007343;28;20030;-67
2022/10/11 01:00:09;;;;;;;16.00;2.90;;;;;;;;;;5005805;28;20587;-67
2022/10/11 01:02:35;;;;;;;11.55;2.53;;;;;;;;;;4986051;28;20041;-66
2022/10/11 01:05:01;;;;;;;;;;;;;;;;;;5009718;28;20132;-67
2022/10/11 01:07:30;;;;;;;10.40;2.53;;;;;;;;;;5006486;28;19947;-67
2022/10/11 01:09:56;;;;;;;16.85;3.20;;;;;;;;;;5007014;28;20025;-67
2022/10/11 01:12:24;;;;;;;13.52;2.90;;;;;;;;;;5009055;28;20037;-66
2022/10/11 01:15:09;;;;;;;10.30;3.05;;;;;;;;;;5006411;28;20765;-66
2022/10/11 01:17:58;;;;;;;11.40;2.85;;;;;;;;;;5004455;28;20549;-66
2022/10/11 01:20:43;;;;;;;10.63;2.58;;;;;;;;;;5003361;28;20025;-66
2022/10/11 01:23:18;;;;;;;10.43;2.58;;;;;;;;;;5007655;28;20357;-66
2022/10/11 01:26:03;;;;;;;10.63;2.75;;;;;;;;;;5003847;28;20045;-65
2022/10/11 01:28:39;;;;;;;12.23;3.13;;;;;;;;;;5004560;28;20045;-66
2022/10/11 01:31:11;;;;;;;13.48;2.90;;;;;;;;;;5009046;28;20036;-66
2022/10/11 01:33:55;;;;;;;13.90;2.92;;;;;;;;;;5003539;28;20176;-65
2022/10/11 01:36:32;;;;;;;15.70;3.25;;;;;;;;;;5008067;28;20020;-66
2022/10/11 01:39:02;;;;;;;13.15;2.60;;;;;;;;;;5009383;28;20136;-66
2022/10/11 01:41:34;;;;;;;11.98;2.63;;;;;;;;;;5008097;28;20348;-66
2022/10/11 01:44:01;;;;;;;15.60;2.80;;;;;;;;;;5006925;28;20365;-66
2022/10/11 01:46:29;;;;;;;9.75;2.60;;;;;;;;;;5005726;28;20032;-66
2022/10/11 01:48:57;;;;;;;10.23;2.70;;;;;;;;;;4989146;28;20543;-66
2022/10/11 01:51:26;;;;;;;12.95;2.60;;;;;;;;;;5009302;28;20076;-66
2022/10/11 01:54:29;;;;;;;9.05;2.42;;;;;;;;;;5009081;28;20064;-66
2022/10/11 01:57:14;;;;;;;10.57;2.58;;;;;;;;;;4910373;29;20497;-66
2022/10/11 01:59:59;;;;;;;12.57;3.30;;;;;;;;;;4909452;29;20039;-66
2022/10/11 02:02:37;;;;;;;11.63;2.58;;;;;;;;;;4907403;29;20039;-66
2022/10/11 02:05:19;;;;;;;11.30;2.63;;;;;;;;;;4911306;29;20499;-66
2022/10/11 02:07:50;;;;;;;10.18;2.42;;;;;;;;;;4896579;29;20035;-66
2022/10/11 02:10:35;;;;;;;9.63;2.70;;;;;;;;;;4911719;29;20182;-67
2022/10/11 02:13:03;;;;;;;12.63;2.83;;;;;;;;;;4908527;28;20027;-66
2022/10/11 02:15:33;;;;;;;10.63;2.58;;;;;;;;;;4910296;29;20434;-66
2022/10/11 02:18:04;;;;;;;10.43;2.60;;;;;;;;;;4911671;29;20051;-66
2022/10/11 02:20:32;;;;;;;10.23;2.53;;;;;;;;;;4905703;29;20055;-66
2022/10/11 02:23:05;;;;;;;9.98;2.80;;;;;;;;;;4911061;29;20691;-66
2022/10/11 02:25:34;;;;;;;13.35;2.70;;;;;;;;;;4906191;29;20079;-67
2022/10/11 02:28:04;;;;;;;12.25;2.58;;;;;;;;;;4911967;29;20521;-67
2022/10/11 02:30:32;;;;;;;10.68;2.80;;;;;;;;;;4939840;28;20037;-66
2022/10/11 02:33:02;;;;;;;8.20;2.75;;;;;;;;;;5006189;28;20051;-66
2022/10/11 02:35:31;;;;;;;10.43;2.63;;;;;;;;;;5002831;28;20573;-67
2022/10/11 02:38:11;;;;;;;12.18;2.70;;;;;;;;;;5005777;28;20103;-67
2022/10/11 02:40:41;;;;;;;8.48;2.58;;;;;;;;;;5006799;28;20132;-66
2022/10/11 02:43:16;;;;;;;10.57;2.80;;;;;;;;;;4977163;28;20034;-68
2022/10/11 02:45:49;;;;;;;11.35;2.65;;;;;;;;;;4989074;28;20024;-66
2022/10/11 02:48:15;;;;;;;10.35;2.85;;;;;;;;;;5007835;28;20380;-66
2022/10/11 02:50:42;;;;;;;11.18;2.97;;;;;;;;;;5006410;28;20033;-66
2022/10/11 02:53:08;;;;;;;13.35;3.17;;;;;;;;;;4987687;28;20476;-66
2022/10/11 02:55:34;;;;;;;;;;;;;;;;;;4987536;28;20132;-66
2022/10/11 02:58:00;;;;;;;12.55;3.17;;;;;;;;;;5004449;28;19947;-66
2022/10/11 03:00:26;;;;;;;;;;;;;;;;;;4986999;28;20056;-66
2022/10/11 03:02:52;;;;;;;11.70;3.17;;;;;;;;;;5007069;28;19957;-66
2022/10/11 03:05:18;;;;;;;;;;;;;;;;;;5008840;28;20063;-67
2022/10/11 03:07:44;;;;;;;9.98;2.40;;;;;;;;;;5002670;28;20673;-66
2022/10/11 03:10:10;;;;;;;;;;;;;;;;;;4991447;28;20043;-66
2022/10/11 03:12:36;;;;;;;10.85;2.42;;;;;;;;;;5004947;28;20101;-66
2022/10/11 03:15:02;;;;;;;;;;;;;;;;;;5009563;28;20131;-66
2022/10/11 03:17:28;;;;;;;11.02;3.15;;;;;;;;;;4986737;28;20268;-66
2022/10/11 03:19:54;;;;;;;;;;;;;;;;;;5009565;28;20040;-66
2022/10/11 03:22:21;;;;;;;11.50;2.72;;;;;;;;;;5006087;28;19913;-66
2022/10/11 03:24:47;;;;;;;10.50;2.50;;;;;;;;;;5003224;28;20123;-65
2022/10/11 03:27:13;;;;;;;11.85;2.65;;;;;;;;;;5009882;28;20223;-66
2022/10/11 03:29:39;;;;;;;;;;;;;;;;;;5005436;28;20025;-66
2022/10/11 03:32:05;;;;;;;10.90;2.75;;;;;;;;;;5008639;28;19923;-66
2022/10/11 03:34:31;;;;;;;;;;;;;;;;;;5004954;28;20057;-67
2022/10/11 03:36:57;;;;;;;10.32;2.28;;;;;;;;;;5007714;28;19992;-66
2022/10/11 03:39:23;;;;;;;;;;;;;;;;;;5008264;28;20029;-67
2022/10/11 03:41:49;;;;;;;11.30;2.30;;;;;;;;;;5006104;28;19935;-67
2022/10/11 03:44:15;;;;;;;;;;;;;;;;;;5007482;28;20103;-67
2022/10/11 03:46:43;;;;;;;10.35;2.10;;;;;;;;;;5003105;28;20394;-66
2022/10/11 03:49:09;;;;;;;12.73;2.45;;;;;;;;;;5004403;28;20034;-66
2022/10/11 03:51:36;;;;;;;13.20;2.50;;;;;;;;;;5005241;28;20351;-66
2022/10/11 03:54:04;;;;;;;14.13;3.08;;;;;;;;;;5008823;28;20034;-66
2022/10/11 03:56:32;;;;;;;12.32;2.90;;;;;;;;;;4988239;28;20408;-66
2022/10/11 03:58:59;;;;;;;11.93;2.95;;;;;;;;;;5010622;28;20036;-67
2022/10/11 04:01:26;;;;;;;12.52;2.97;;;;;;;;;;5009897;28;20056;-66
2022/10/11 04:03:57;;;;;;;10.82;2.83;;;;;;;;;;5011736;28;20026;-66
2022/10/11 04:06:24;;;;;;;11.60;2.70;;;;;;;;;;5011551;28;20118;-67
2022/10/11 04:08:50;;;;;;;11.00;2.58;;;;;;;;;;5009828;28;20032;-66
2022/10/11 04:11:17;;;;;;;;;;;;;;;;;;5013370;28;20578;-66
2022/10/11 04:13:44;;;;;;;;;;;;;;;;;;4992105;28;20544;-66
2022/10/11 04:16:11;;;;;;;11.73;3.17;;;;;;;;;;5012453;28;20344;-66
2022/10/11 04:18:39;;;;;;;13.88;3.40;;;;;;;;;;5008156;28;20030;-66
2022/10/11 04:21:06;;;;;;;10.45;2.42;;;;;;;;;;5011724;28;20068;-67
2022/10/11 04:23:33;;;;;;;11.88;2.50;;;;;;;;;;5008238;28;20025;-67
2022/10/11 04:26:04;;;;;;;16.15;3.00;;;;;;;;;;5009448;28;20022;-66
2022/10/11 04:28:32;;;;;;;8.55;2.58;;;;;;;;;;5006631;28;20150;-66
2022/10/11 04:30:59;;;;;;;11.85;2.47;;;;;;;;;;5010935;28;20064;-66
2022/10/11 04:33:26;;;;;;;10.77;2.47;;;;;;;;;;5008031;28;20053;-67
2022/10/11 04:35:56;;;;;;;11.30;2.60;;;;;;;;;;5010753;28;20486;-66
2022/10/11 04:38:24;;;;;;;10.55;2.40;;;;;;;;;;5012277;28;20053;-66
2022/10/11 04:40:51;;;;;;;10.93;2.38;;;;;;;;;;4994008;28;20034;-66
2022/10/11 04:43:19;;;;;;;11.18;2.30;;;;;;;;;;4992043;28;20041;-67
2022/10/11 04:45:46;;;;;;;13.32;3.00;;;;;;;;;;5007726;28;20101;-67
2022/10/11 04:48:13;;;;;;;14.30;2.80;;;;;;;;;;5009822;28;20039;-67
2022/10/11 04:50:39;;;;;;;12.07;2.63;;;;;;;;;;5010536;28;20357;-67
2022/10/11 04:53:05;;;;;;;;;;;;;;;;;;4993099;28;20081;-67
2022/10/11 04:55:31;;;;;;;11.68;2.75;;;;;;;;;;4993152;28;20004;-67
2022/10/11 04:57:57;;;;;;;;;;;;;;;;;;5011104;28;20476;-67
2022/10/11 05:00:26;;;;;;;12.95;2.92;;;;;;;;;;5008561;28;19920;-66
2022/10/11 05:02:52;;;;;;;15.60;2.95;;;;;;;;;;5012369;28;20038;-67
2022/10/11 05:05:18;;;;;;;13.95;2.58;;;;;;;;;;5009978;28;20057;-67
2022/10/11 05:07:44;;;;;;;;;;;;;;;;;;5007568;28;20152;-67
2022/10/11 05:10:10;;;;;;;9.70;2.42;;;;;;;;;;5008994;28;20476;-67
2022/10/11 05:12:36;;;;;;;;;;;;;;;;;;5007864;28;20017;-67
2022/10/11 05:15:03;;;;;;;9.80;2.60;;;;;;;;;;5009814;28;19919;-66
2022/10/11 05:17:29;;;;;;;11.00;2.60;;;;;;;;;;5007581;28;20589;-66
2022/10/11 05:19:55;;;;;;;;;;;;;;;;;;5010985;28;20017;-66
2022/10/11 05:22:21;;;;;;;14.52;2.95;;;;;;;;;;5010524;28;19919;-66
2022/10/11 05:24:47;;;;;;;;;;;;;;;;;;4986848;28;20029;-67
2022/10/11 05:27:13;;;;;;;13.27;2.58;;;;;;;;;;5008692;28;19968;-67
2022/10/11 05:29:39;;;;;;;;;;;;;;;;;;4989501;28;20119;-66
2022/10/11 05:32:05;;;;;;;12.02;2.60;;;;;;;;;;5010992;28;19917;-66
2022/10/11 05:34:31;;;;;;;12.05;2.83;;;;;;;;;;4988714;28;20057;-66
2022/10/11 05:36:57;;;;;;;;;;;;;;;;;;5009792;28;20033;-67
2022/10/11 05:39:23;;;;;;;11.38;2.60;;;;;;;;;;5008371;28;19917;-67
2022/10/11 05:41:50;;;;;;;11.13;2.65;;;;;;;;;;5006606;28;20033;-67
2022/10/11 05:44:17;;;;;;;12.57;2.80;;;;;;;;;;5009238;28;20034;-67
2022/10/11 05:46:44;;;;;;;;;;;;;;;;;;5007059;28;20030;-67
2022/10/11 05:49:11;;;;;;;13.45;3.17;;;;;;;;;;5010600;28;20110;-67
2022/10/11 05:51:39;;;;;;;14.55;3.30;;;;;;;;;;4989329;28;20056;-67
2022/10/11 05:54:06;;;;;;;9.55;2.97;;;;;;;;;;5008556;28;20150;-66
2022/10/11 05:56:34;;;;;;;11.55;3.13;;;;;;;;;;4988547;28;20029;-66
2022/10/11 05:59:01;;;;;;;14.90;3.72;;;;;;;;;;5009119;28;20033;-66
2022/10/11 06:01:28;;;;;;;11.50;3.22;;;;;;;;;;4989476;28;20487;-66
2022/10/11 06:03:55;;;;;;;12.07;3.30;;;;;;;;;;5009153;28;20034;-66
2022/10/11 06:06:22;;;;;;;12.38;3.33;;;;;;;;;;5009915;28;20021;-66
2022/10/11 06:08:50;;;;;;;11.85;3.22;;;;;;;;;;5009703;28;20092;-66
2022/10/11 06:11:24;;;;;;;18.23;4.20;;;;;;;;;;5010027;28;20025;-66
2022/10/11 06:13:56;;;;;;;19.02;4.30;;;;;;;;;;5008172;28;20530;-66
2022/10/11 06:16:23;;;;;;;21.80;4.15;;;;;;;;;;5007063;28;20464;-66
2022/10/11 06:18:54;;;;;;;11.57;3.40;;;;;;;;;;5007515;28;20258;-66
2022/10/11 06:21:25;;;;;;;13.20;3.15;;;;;;;;;;5004498;28;20095;-67
2022/10/11 06:23:53;;;;;;;15.05;2.92;;;;;;;;;;4986925;28;20065;-67
2022/10/11 06:26:27;;;;;;;13.32;3.50;;;;;;;;;;5007255;28;20030;-67
2022/10/11 06:28:54;;;;;;;15.73;3.30;;;;;;;;;;5010827;28;20071;-66
2022/10/11 06:31:22;;;;;;;13.73;3.38;;;;;;;;;;4992246;28;20076;-66
2022/10/11 06:33:49;;;;;;;12.95;3.22;;;;;;;;;;4987623;28;20124;-67
2022/10/11 06:36:17;;;;;;;13.32;3.35;;;;;;;;;;5009782;28;20021;-65
2022/10/11 06:38:45;;;;;;;15.63;3.85;;;;;;;;;;5002264;28;20058;-67
2022/10/11 06:41:26;;;;;;;15.98;4.00;;;;;;;;;;5010442;28;20025;-66
2022/10/11 06:43:53;;;;;;;15.07;3.30;;;;;;;;;;5004347;28;20157;-66
2022/10/11 06:46:21;;;;;;;15.05;3.78;;;;;;;;;;5002815;28;20036;-66
2022/10/11 06:48:47;;;;;;;15.25;3.80;;;;;;;;;;4986151;28;20037;-67
2022/10/11 06:51:15;;;;;;;13.80;3.55;;;;;;;;;;5008638;28;20535;-66
2022/10/11 06:53:41;;;;;;;13.10;3.20;;;;;;;;;;5006063;28;20406;-66
2022/10/11 06:56:07;;;;;;;;;;;;;;;;;;5009195;28;20346;-67
2022/10/11 06:58:33;;;;;;;12.68;4.28;;;;;;;;;;5004826;28;20354;-66
2022/10/11 07:00:59;;;;;;;;;;;;;;;;;;5009129;28;20029;-67
2022/10/11 07:03:25;;;;;;;15.27;3.83;;;;;;;;;;5005704;28;19913;-66
2022/10/11 07:05:51;;;;;;;;;;;;;;;;;;4991526;28;20551;-66
2022/10/11 07:08:17;;;;;;;15.55;4.20;;;;;;;;;;5009377;28;20028;-67
2022/10/11 07:10:43;;;;;;;;;;;;;;;;;;5007416;28;20727;-67
2022/10/11 07:13:09;;;;;;;14.38;3.33;;;;;;;;;;5011172;28;20285;-69
2022/10/11 07:15:40;;;;;;;17.60;4.03;;;;;;;;;;5005758;28;20033;-67
2022/10/11 07:18:06;;;;;;;12.20;3.17;;;;;;;;;;5008907;28;20041;-66
2022/10/11 07:20:32;;;;;;;11.85;3.38;;;;;;;;;;5003447;28;20033;-66
2022/10/11 07:22:58;;;;;;;17.85;3.40;;;;;;;;;;5009073;28;20610;-66
2022/10/11 07:25:24;;;;;;;;;;;;;;;;;;4987961;28;20033;-66
2022/10/11 07:27:50;;;;;;;12.15;3.35;;;;;;;;;;5010770;28;19994;-66
2022/10/11 07:30:16;;;;;;;;;;;;;;;;;;5008017;28;20049;-66
2022/10/11 07:32:42;;;;;;;14.45;3.88;;;;;;;;;;5004855;28;19996;-66
2022/10/11 07:35:08;;;;;;;13.85;3.90;;;;;;;;;;4988932;28;20588;-66
2022/10/11 07:37:34;;;;;;;;;;;;;;;;;;5004151;28;20058;-66
2022/10/11 07:40:00;;;;;;;14.65;4.07;;;;;;;;;;5008365;28;20405;-66
2022/10/11 07:42:26;;;;;;;;;;;;;;;;;;5005055;28;20033;-66
2022/10/11 07:44:52;;;;;;;12.23;3.20;;;;;;;;;;5007390;28;20320;-67
2022/10/11 07:47:20;;;;;;;;;;;;;;;;;;5010029;28;20495;-67
2022/10/11 07:49:47;;;;;;;10.93;3.05;;;;;;;;;;5003871;28;20425;-68
2022/10/11 07:52:14;;;;;;;15.65;3.90;;;;;;;;;;5007309;28;20025;-66
2022/10/11 07:54:42;;;;;;;15.77;3.40;;;;;;;;;;5007759;28;20025;-66
2022/10/11 07:57:09;;;;;;;15.60;3.58;;;;;;;;;;5010164;28;20044;-66
2022/10/11 07:59:36;;;;;;;18.50;4.03;;;;;;;;;;5005580;28;20541;-66
2022/10/11 08:02:03;;;;;;;12.30;3.42;;;;;;;;;;5006950;28;20140;-66
2022/10/11 08:04:30;;;;;;;14.23;3.67;;;;;;;;;;5004438;28;20025;-66
2022/10/11 08:06:57;;;;;;;13.27;2.60;;;;;;;;;;5006884;28;20037;-66
2022/10/11 08:09:24;;;;;;;;;;;;;;;;;;5007923;28;20042;-66
2022/10/11 08:11:51;;;;;;;15.57;3.83;;;;;;;;;;5008811;28;20581;-67
2022/10/11 08:14:20;;;;;;;13.40;4.05;;;;;;;;;;5003664;28;20056;-66
2022/10/11 08:16:48;;;;;;;18.05;4.68;;;;;;;;;;5004668;28;20490;-66
2022/10/11 08:19:17;;;;;;;17.38;5.30;;;;;;;;;;4988482;28;20057;-66
2022/10/11 08:21:44;;;;;;;12.98;4.13;;;;;;;;;;5007805;28;22109;-66
2022/10/11 08:24:14;;;;;;;16.30;4.40;;;;;;;;;;5007521;28;20078;-66
2022/10/11 08:26:41;;;;;;;11.40;4.25;;;;;;;;;;5004698;28;20036;-67
2022/10/11 08:29:09;;;;;;;13.30;3.72;;;;;;;;;;5007148;28;20070;-67
2022/10/11 08:31:36;;;;;;;13.05;3.05;;;;;;;;;;5004046;28;20037;-67
2022/10/11 08:34:04;;;;;;;11.32;3.10;;;;;;;;;;5007919;28;20022;-67
2022/10/11 08:36:50;;;;;;;14.52;3.90;;;;;;;;;;5007753;28;20076;-67
2022/10/11 08:39:17;;;;;;;14.88;3.45;;;;;;;;;;5007278;28;20042;-66
2022/10/11 08:41:54;;;;;;;12.35;3.20;;;;;;;;;;4987845;28;21203;-68
2022/10/11 08:44:34;;;;;;;15.25;3.80;;;;;;;;;;5005195;28;20725;-68
2022/10/11 08:47:08;;;;;;;16.85;3.83;;;;;;;;;;5000515;28;20104;-67
2022/10/11 08:49:36;;;;;;;11.38;3.53;;;;;;;;;;5003901;28;20034;-68
2022/10/11 08:52:04;;;;;;;12.73;3.40;;;;;;;;;;5000737;28;20491;-67
2022/10/11 08:54:41;;;;;;;13.52;3.40;;;;;;;;;;5006353;28;20668;-67
2022/10/11 08:57:10;;;;;;;11.20;3.10;;;;;;;;;;5008303;28;20458;-67
2022/10/11 08:59:49;;;;;;;13.48;2.80;;;;;;;;;;5004163;28;20559;-67
2022/10/11 09:02:28;;;;;;;11.82;2.88;;;;;;;;;;5006913;28;20040;-67
2022/10/11 09:04:55;;;;;;;12.85;2.80;;;;;;;;;;5009538;28;20108;-66
2022/10/11 09:07:40;;;;;;;13.10;2.58;;;;;;;;;;5007695;28;20025;-66
2022/10/11 09:10:06;;;;;;;9.00;2.13;;;;;;;;;;5007322;28;20657;-67
2022/10/11 09:12:40;;;;;;;10.20;2.35;;;;;;;;;;4987834;28;20021;-67
2022/10/11 09:15:13;;;;;;;9.93;2.30;;;;;;;;;;5008725;28;20431;-66
2022/10/11 09:17:42;;;;;;;14.65;2.85;;;;;;;;;;5004200;28;20373;-66
2022/10/11 09:20:23;;;;;;;9.80;2.20;;;;;;;;;;5008476;28;20033;-66
2022/10/11 09:23:08;;;;;;;11.38;2.42;;;;;;;;;;5008587;28;20049;-67
2022/10/11 09:25:37;;;;;;;11.98;2.58;;;;;;;;;;5002363;28;20782;-66
2022/10/11 09:28:22;;;;;;;12.95;2.88;;;;;;;;;;5007405;28;20446;-67
2022/10/11 09:30:50;;;;;;;16.05;4.20;;;;;;;;;;5006651;28;20056;-66
2022/10/11 09:33:34;;;;;;;15.90;3.17;;;;;;;;;;5007989;28;20119;-68
2022/10/11 09:36:01;;;;;;;14.95;3.15;;;;;;;;;;4990646;28;20393;-66
2022/10/11 09:38:33;;;;;;;13.60;3.20;;;;;;;;;;4977592;28;20442;-67
2022/10/11 09:41:03;;;;;;;11.48;2.90;;;;;;;;;;4988175;28;20026;-67
2022/10/11 09:43:29;;;;;;;9.35;2.55;;;;;;;;;;4985797;28;20424;-66
2022/10/11 09:45:55;;;;;;;11.55;2.83;;;;;;;;;;4990495;28;20061;-67
2022/10/11 09:48:27;;;;;;;11.77;2.83;;;;;;;;;;4988019;28;20037;-67
2022/10/11 09:51:01;;;;;;;10.48;2.22;;;;;;;;;;4987907;28;20041;-67
2022/10/11 09:53:59;;;;;;;11.32;2.60;;;;;;;;;;4986733;28;20416;-67
2022/10/11 09:56:27;;;;;;;10.38;2.38;;;;;;;;;;4970334;28;20083;-66
2022/10/11 09:59:31;;;;;;;11.57;2.80;;;;;;;;;;4972005;28;20049;-66
2022/10/11 10:02:27;;;;;;;12.55;2.67;;;;;;;;;;4926113;28;20513;-66
2022/10/11 10:05:13;;;;;;;12.85;2.58;;;;;;;;;;4908383;29;20086;-67
2022/10/11 10:07:56;;;;;;;13.70;2.90;;;;;;;;;;4908530;29;20031;-66
2022/10/11 10:10:41;;;;;;;12.05;2.70;;;;;;;;;;4896826;29;20043;-67
2022/10/11 10:13:26;;;;;;;11.18;2.65;;;;;;;;;;4913056;29;20409;-66
2022/10/11 10:15:58;;;;;;;10.98;2.88;;;;;;;;;;4912110;29;20479;-66
2022/10/11 10:18:38;;;;;;;14.40;2.80;;;;;;;;;;4910169;29;20184;-67
2022/10/11 10:21:08;;;;;;;8.68;2.00;;;;;;;;;;4914255;29;20062;-66
2022/10/11 10:23:36;;;;;;;9.88;2.58;;;;;;;;;;4911559;29;20541;-66
2022/10/11 10:26:22;;;;;;;10.05;2.30;;;;;;;;;;4908858;29;20039;-68
2022/10/11 10:29:15;;;;;;;9.50;2.60;;;;;;;;;;4916990;29;20043;-66
2022/10/11 10:31:53;;;;;;;14.60;3.30;;;;;;;;;;4912127;29;20499;-67
2022/10/11 10:34:28;;;;;;;15.45;2.95;;;;;;;;;;4913415;29;20374;-66
2022/10/11 10:37:20;;;;;;;12.27;2.42;;;;;;;;;;4945664;28;20051;-67
2022/10/11 10:39:47;;;;;;;13.82;2.40;;;;;;;;;;4891034;29;20052;-66
2022/10/11 10:42:16;;;;;;;16.88;3.35;;;;;;;;;;4877742;29;20044;-67
2022/10/11 10:44:47;;;;;;;16.42;2.85;;;;;;;;;;4885834;29;20040;-66
2022/10/11 10:47:19;;;;;;;9.77;2.60;;;;;;;;;;4875763;29;20036;-67
2022/10/11 10:49:54;;;;;;;11.38;2.53;;;;;;;;;;4874177;29;20048;-67
2022/10/11 10:52:20;;;;;;;11.18;2.17;;;;;;;;;;4872971;29;20032;-67
2022/10/11 10:55:05;;;;;;;9.73;2.25;;;;;;;;;;4870082;29;20044;-67
2022/10/11 10:57:36;;;;;;;9.15;2.17;;;;;;;;;;4872047;29;20070;-68
2022/10/11 11:00:11;;;;;;;11.48;2.33;;;;;;;;;;4870714;29;20051;-67
2022/10/11 11:02:46;;;;;;;13.20;2.38;;;;;;;;;;4872355;29;20040;-66
2022/10/11 11:05:31;;;;;;;13.07;2.58;;;;;;;;;;4886373;29;20399;-67
2022/10/11 11:08:04;;;;;;;11.38;2.50;;;;;;;;;;4875679;29;20127;-67
2022/10/11 11:10:36;;;;;;;11.35;2.10;;;;;;;;;;4870200;29;20135;-67
2022/10/11 11:13:19;;;;;;;10.77;2.53;;;;;;;;;;4868092;29;20036;-67
2022/10/11 11:16:04;;;;;;;9.52;2.10;;;;;;;;;;4868432;28;20575;-66
2022/10/11 11:18:45;;;;;;;9.32;1.88;;;;;;;;;;4998816;28;20041;-67
2022/10/11 11:21:30;;;;;;;11.80;2.20;;;;;;;;;;5003954;28;20539;-67
2022/10/11 11:24:15;;;;;;;8.80;1.92;;;;;;;;;;5004287;28;20029;-67
2022/10/11 11:26:55;;;;;;;14.02;2.22;;;;;;;;;;4981116;28;20065;-67
2022/10/11 11:29:42;;;;;;;11.10;2.15;;;;;;;;;;4987729;28;20099;-67
2022/10/11 11:32:17;;;;;;;8.68;1.95;;;;;;;;;;5005218;28;20064;-68
2022/10/11 11:34:46;;;;;;;9.73;2.05;;;;;;;;;;5001924;28;21191;-66
2022/10/11 11:37:35;;;;;;;13.77;2.47;;;;;;;;;;5004219;28;20037;-66
2022/10/11 11:40:18;;;;;;;8.63;2.05;;;;;;;;;;4992265;28;20472;-68
2022/10/11 11:43:07;;;;;;;9.65;2.30;;;;;;;;;;5005263;28;20148;-67
2022/10/11 11:45:48;;;;;;;8.70;2.28;;;;;;;;;;4993636;28;20100;-68
2022/10/11 11:48:26;;;;;;;10.45;2.13;;;;;;;;;;5002579;28;20215;-68
2022/10/11 11:50:58;;;;;;;11.02;2.30;;;;;;;;;;5005808;28;20037;-67
2022/10/11 11:53:47;;;;;;;8.70;2.28;;;;;;;;;;5004178;28;20029;-68
2022/10/11 11:56:32;;;;;;;12.50;2.30;;;;;;;;;;5005134;28;20040;-67
2022/10/11 11:59:18;;;;;;;10.30;2.30;;;;;;;;;;5001706;28;20029;-66
2022/10/11 12:02:07;;;;;;;9.95;1.77;;;;;;;;;;5000290;28;20393;-67
2022/10/11 12:04:36;;;;;;;10.15;2.28;;;;;;;;;;4981600;28;20408;-67
2022/10/11 12:07:14;;;;;;;10.05;2.00;;;;;;;;;;4985026;28;20555;-67
2022/10/11 12:09:42;;;;;;;12.38;2.53;;;;;;;;;;4997020;28;20033;-67
2022/10/11 12:12:30;;;;;;;9.35;1.92;;;;;;;;;;4997810;28;20042;-67
2022/10/11 12:15:17;;;;;;;7.28;1.73;;;;;;;;;;5000211;28;20073;-68
2022/10/11 12:17:58;;;;;;;11.48;2.00;;;;;;;;;;4997765;28;20590;-67
2022/10/11 12:20:30;;;;;;;15.23;2.72;;;;;;;;;;4999725;28;20478;-69
2022/10/11 12:23:23;;;;;;;11.15;2.10;;;;;;;;;;5000590;28;20072;-68
2022/10/11 12:26:12;;;;;;;9.52;1.70;;;;;;;;;;5002464;28;20130;-67
2022/10/11 12:28:47;;;;;;;11.50;2.38;;;;;;;;;;4972637;28;20038;-67
2022/10/11 12:31:20;;;;;;;9.37;2.10;;;;;;;;;;4989342;28;20088;-68
2022/10/11 12:34:02;;;;;;;12.43;2.20;;;;;;;;;;4988008;28;20326;-68
2022/10/11 12:36:35;;;;;;;7.32;1.45;;;;;;;;;;4970805;28;20033;-68
2022/10/11 12:39:20;;;;;;;8.50;1.90;;;;;;;;;;4991606;28;20056;-68
2022/10/11 12:41:49;;;;;;;10.57;2.15;;;;;;;;;;5003200;28;20132;-67
2022/10/11 12:44:23;;;;;;;10.90;2.40;;;;;;;;;;5003436;28;20117;-67
2022/10/11 12:46:52;;;;;;;13.52;2.08;;;;;;;;;;5000529;28;20096;-68
2022/10/11 12:49:46;;;;;;;8.18;1.90;;;;;;;;;;4987890;28;20613;-67
2022/10/11 12:52:15;;;;;;;12.85;2.28;;;;;;;;;;5003976;28;20483;-69
2022/10/11 12:54:44;;;;;;;10.63;2.50;;;;;;;;;;4999919;28;20441;-68
2022/10/11 12:57:29;;;;;;;13.40;1.95;;;;;;;;;;5004629;28;20041;-67
2022/10/11 13:00:06;;;;;;;7.75;1.88;;;;;;;;;;5001870;28;20558;-68
2022/10/11 13:02:35;;;;;;;10.45;2.65;;;;;;;;;;5003547;28;20299;-69
2022/10/11 13:05:16;;;;;;;11.73;2.40;;;;;;;;;;5000533;28;20310;-68
2022/10/11 13:07:42;;;;;;;13.88;2.00;;;;;;;;;;5000618;28;20033;-67
2022/10/11 13:10:13;;;;;;;13.32;2.15;;;;;;;;;;4999456;28;20033;-68
2022/10/11 13:12:42;;;;;;;12.50;2.10;;;;;;;;;;4986125;28;20032;-68
2022/10/11 13:15:13;;;;;;;9.45;1.80;;;;;;;;;;5007744;28;20037;-67
2022/10/11 13:17:39;;;;;;;11.55;2.33;;;;;;;;;;4985861;28;20029;-68
2022/10/11 13:20:16;;;;;;;14.32;2.22;;;;;;;;;;4999723;28;20073;-67
2022/10/11 13:22:42;;;;;;;12.10;2.45;;;;;;;;;;4997791;28;20041;-67
2022/10/11 13:25:09;;;;;;;10.13;2.10;;;;;;;;;;5004172;28;20144;-69
2022/10/11 13:27:36;;;;;;;13.73;2.20;;;;;;;;;;4995365;28;20030;-67
2022/10/11 13:30:03;;;;;;;10.23;1.77;;;;;;;;;;5001548;28;20026;-67
2022/10/11 13:32:31;;;;;;;8.27;1.88;;;;;;;;;;5002989;28;20049;-68
2022/10/11 13:35:14;;;;;;;9.70;2.00;;;;;;;;;;5005495;28;20033;-68
2022/10/11 13:37:42;;;;;;;11.70;2.00;;;;;;;;;;4999833;28;20038;-68
2022/10/11 13:40:18;;;;;;;12.68;2.50;;;;;;;;;;5003445;28;20348;-68
2022/10/11 13:42:44;;;;;;;11.20;2.15;;;;;;;;;;4996115;28;20131;-67
2022/10/11 13:45:15;;;;;;;10.90;2.10;;;;;;;;;;5001046;28;20562;-68
2022/10/11 13:47:43;;;;;;;11.48;1.98;;;;;;;;;;4987450;28;20108;-67
2022/10/11 13:50:38;;;;;;;11.93;2.08;;;;;;;;;;4989728;28;20029;-67
2022/10/11 13:53:08;;;;;;;9.85;2.33;;;;;;;;;;4941442;28;20506;-68
2022/10/11 13:55:46;;;;;;;9.88;1.92;;;;;;;;;;4936837;28;20034;-68
2022/10/11 13:58:20;;;;;;;10.77;1.95;;;;;;;;;;4935912;28;20054;-69
2022/10/11 14:01:01;;;;;;;12.27;2.00;;;;;;;;;;4936565;28;20404;-69
2022/10/11 14:03:40;;;;;;;10.18;2.17;;;;;;;;;;4934480;28;20288;-68
2022/10/11 14:06:07;;;;;;;12.23;2.22;;;;;;;;;;4943515;28;20034;-68
2022/10/11 14:08:37;;;;;;;11.80;2.45;;;;;;;;;;4938304;28;20444;-68
2022/10/11 14:11:06;;;;;;;11.65;2.70;;;;;;;;;;4939566;28;20080;-70
2022/10/11 14:13:39;;;;;;;10.23;2.10;;;;;;;;;;4935935;28;20035;-68
2022/10/11 14:16:10;;;;;;;11.75;2.22;;;;;;;;;;4937083;28;20506;-68
2022/10/11 14:18:42;;;;;;;10.55;1.98;;;;;;;;;;4937047;28;20261;-68
2022/10/11 14:21:25;;;;;;;8.40;2.00;;;;;;;;;;4941997;28;20397;-68
2022/10/11 14:24:18;;;;;;;11.07;2.05;;;;;;;;;;4925966;28;20035;-67
2022/10/11 14:26:46;;;;;;;9.80;2.00;;;;;;;;;;4929961;28;21611;-68
2022/10/11 14:29:27;;;;;;;12.43;2.20;;;;;;;;;;4960264;28;20045;-67
2022/10/11 14:31:55;;;;;;;8.75;2.15;;;;;;;;;;5000358;28;20065;-67
2022/10/11 14:34:23;;;;;;;9.88;2.30;;;;;;;;;;5002072;28;20056;-68
2022/10/11 14:36:52;;;;;;;9.35;2.30;;;;;;;;;;4989080;28;20032;-68
2022/10/11 14:39:24;;;;;;;11.05;2.55;;;;;;;;;;4989448;28;20046;-68
2022/10/11 14:41:51;;;;;;;10.93;2.30;;;;;;;;;;4986046;28;20026;-68
2022/10/11 14:44:19;;;;;;;10.63;2.75;;;;;;;;;;4970949;28;20535;-67
2022/10/11 14:46:46;;;;;;;11.98;2.25;;;;;;;;;;4980822;28;20061;-68
2022/10/11 14:49:17;;;;;;;7.55;1.60;;;;;;;;;;4983576;28;20432;-68
2022/10/11 14:51:45;;;;;;;11.18;2.80;;;;;;;;;;4965614;28;20166;-68
2022/10/11 14:54:12;;;;;;;12.77;2.30;;;;;;;;;;4988609;28;20355;-67
2022/10/11 14:56:39;;;;;;;10.55;2.22;;;;;;;;;;4989515;28;20124;-67
2022/10/11 14:59:05;;;;;;;10.25;2.08;;;;;;;;;;4991535;28;20145;-69
2022/10/11 15:01:31;;;;;;;12.18;2.35;;;;;;;;;;4984585;28;20519;-69
2022/10/11 15:03:58;;;;;;;9.15;2.20;;;;;;;;;;4987062;28;20487;-68
2022/10/11 15:06:27;;;;;;;8.65;2.08;;;;;;;;;;4987246;28;20026;-67
2022/10/11 15:08:53;;;;;;;11.77;1.92;;;;;;;;;;4992399;28;20391;-68